createdAt,value
2019-06-26T00:02:28.317Z,23.72
2019-06-26T00:05:00.220Z,23.71
2019-06-26T00:07:31.605Z,23.69
2019-06-26T00:10:03.409Z,23.66
2019-06-26T00:12:35.444Z,23.66
2019-06-26T00:15:07.780Z,23.66
2019-06-26T00:17:39.076Z,23.66
2019-06-26T00:20:12.635Z,23.63
2019-06-26T00:22:43.821Z,23.61
2019-06-26T00:25:16.034Z,23.57
2019-06-26T00:27:47.905Z,23.52
2019-06-26T00:30:20.018Z,23.51
2019-06-26T00:32:51.875Z,23.50
2019-06-26T00:35:23.700Z,23.50
2019-06-26T00:37:55.557Z,23.51
2019-06-26T00:40:27.839Z,23.52
2019-06-26T00:42:59.585Z,23.56
2019-06-26T00:45:30.744Z,23.50
2019-06-26T00:48:02.579Z,23.47
2019-06-26T00:50:34.567Z,23.42
2019-06-26T00:53:06.585Z,23.45
2019-06-26T00:55:38.494Z,23.44
2019-06-26T00:58:10.416Z,23.47
2019-06-26T01:00:45.918Z,23.42
2019-06-26T01:03:17.056Z,23.44
2019-06-26T01:05:48.970Z,23.44
2019-06-26T01:08:22.115Z,23.49
2019-06-26T01:10:54.031Z,23.53
2019-06-26T01:13:26.035Z,23.46
2019-06-26T01:15:58.028Z,23.42
2019-06-26T01:18:30.002Z,23.41
2019-06-26T01:21:05.056Z,23.39
2019-06-26T01:23:36.959Z,23.40
2019-06-26T01:26:09.004Z,23.41
2019-06-26T01:28:40.896Z,23.39
2019-06-26T01:31:12.860Z,23.33
2019-06-26T01:33:44.168Z,23.32
2019-06-26T01:36:15.391Z,23.32
2019-06-26T01:38:47.478Z,23.27
2019-06-26T01:41:19.352Z,23.22
2019-06-26T01:43:52.370Z,23.26
2019-06-26T01:46:23.708Z,23.24
2019-06-26T01:48:54.960Z,23.19
2019-06-26T01:51:27.836Z,23.18
2019-06-26T01:53:59.336Z,23.14
2019-06-26T01:56:31.816Z,23.12
2019-06-26T01:59:03.774Z,23.07
2019-06-26T02:01:35.901Z,23.07
2019-06-26T02:04:15.594Z,23.04
2019-06-26T02:06:47.377Z,23.03
2019-06-26T02:09:22.731Z,23.04
2019-06-26T02:11:53.955Z,23.05
2019-06-26T02:14:31.129Z,23.04
2019-06-26T02:16:58.195Z,23.00
2019-06-26T02:19:30.283Z,22.99
2019-06-26T02:22:08.902Z,22.97
2019-06-26T02:24:40.432Z,22.91
2019-06-26T02:27:17.714Z,22.93
2019-06-26T02:29:52.088Z,22.92
2019-06-26T02:32:24.063Z,22.86
2019-06-26T02:34:56.077Z,22.87
2019-06-26T02:37:27.426Z,22.83
2019-06-26T02:39:58.543Z,22.81
2019-06-26T02:42:31.843Z,22.79
2019-06-26T02:45:03.359Z,22.78
2019-06-26T02:47:35.284Z,22.74
2019-06-26T02:50:08.085Z,22.72
2019-06-26T02:52:42.609Z,22.77
2019-06-26T02:55:14.798Z,22.80
2019-06-26T02:57:46.077Z,22.87
2019-06-26T03:00:22.333Z,22.92
2019-06-26T03:02:53.655Z,22.91
2019-06-26T03:05:26.951Z,22.96
2019-06-26T03:07:58.796Z,22.99
2019-06-26T03:10:30.695Z,23.06
2019-06-26T03:13:01.909Z,23.10
2019-06-26T03:15:33.747Z,23.12
2019-06-26T03:18:05.103Z,23.11
2019-06-26T03:20:42.371Z,23.12
2019-06-26T03:23:13.591Z,23.10
2019-06-26T03:25:45.485Z,23.14
2019-06-26T03:28:17.371Z,23.21
2019-06-26T03:30:49.295Z,23.22
2019-06-26T03:33:21.192Z,23.23
2019-06-26T03:35:52.408Z,23.30
2019-06-26T03:38:24.163Z,23.37
2019-06-26T03:40:55.380Z,23.43
2019-06-26T03:43:26.527Z,23.45
2019-06-26T03:45:58.578Z,23.47
2019-06-26T03:48:31.475Z,23.48
2019-06-26T03:51:02.811Z,23.53
2019-06-26T03:53:34.631Z,23.57
2019-06-26T03:56:06.548Z,23.56
2019-06-26T03:58:38.439Z,23.64
2019-06-26T04:01:14.060Z,23.67
2019-06-26T04:03:50.325Z,23.70
2019-06-26T04:06:22.181Z,23.80
2019-06-26T04:08:54.044Z,23.86
2019-06-26T04:11:25.330Z,23.87
2019-06-26T04:14:20.971Z,23.94
2019-06-26T04:20:03.151Z,24.03
2019-06-26T04:22:35.014Z,24.06
2019-06-26T04:25:07.666Z,24.11
2019-06-26T04:27:38.858Z,24.17
2019-06-26T04:30:11.274Z,24.23
2019-06-26T04:32:42.654Z,24.27
2019-06-26T04:35:13.879Z,24.38
2019-06-26T04:37:45.734Z,24.43
2019-06-26T04:40:20.292Z,24.51
2019-06-26T04:42:50.802Z,24.60
2019-06-26T04:45:21.996Z,24.66
2019-06-26T04:47:53.881Z,24.73
2019-06-26T04:50:25.835Z,24.85
2019-06-26T04:52:57.075Z,24.99
2019-06-26T04:55:28.854Z,25.11
2019-06-26T04:58:00.204Z,25.24
2019-06-26T05:00:33.230Z,25.34
2019-06-26T05:03:04.454Z,25.42
2019-06-26T05:05:39.986Z,25.51
2019-06-26T05:08:10.311Z,25.58
2019-06-26T05:10:42.145Z,25.69
2019-06-26T05:13:13.985Z,25.77
2019-06-26T05:15:45.920Z,25.87
2019-06-26T05:18:17.766Z,25.99
2019-06-26T05:20:49.647Z,26.16
2019-06-26T05:23:20.922Z,26.44
2019-06-26T05:25:52.779Z,26.72
2019-06-26T05:28:24.741Z,27.03
2019-06-26T05:30:56.088Z,27.30
2019-06-26T05:33:27.264Z,27.49
2019-06-26T05:35:58.409Z,27.66
2019-06-26T05:38:30.239Z,27.86
2019-06-26T05:41:01.459Z,28.02
2019-06-26T05:43:33.327Z,28.19
2019-06-26T05:46:05.216Z,28.32
2019-06-26T05:48:36.489Z,28.43
2019-06-26T05:51:08.491Z,28.54
2019-06-26T05:53:40.506Z,28.68
2019-06-26T05:56:13.462Z,28.74
2019-06-26T05:58:45.471Z,28.82
2019-06-26T06:01:17.490Z,28.88
2019-06-26T06:03:49.366Z,28.93
2019-06-26T06:06:22.938Z,28.93
2019-06-26T06:08:54.927Z,28.96
2019-06-26T06:11:26.864Z,28.96
2019-06-26T06:13:58.130Z,29.02
2019-06-26T06:16:45.947Z,29.03
2019-06-26T06:19:03.808Z,29.06
2019-06-26T06:21:35.742Z,29.06
2019-06-26T06:24:10.702Z,29.07
2019-06-26T06:26:42.547Z,29.08
2019-06-26T06:29:14.507Z,29.11
2019-06-26T06:31:46.549Z,29.14
2019-06-26T06:34:20.301Z,29.19
2019-06-26T06:36:53.805Z,29.19
2019-06-26T06:39:30.846Z,29.22
2019-06-26T06:42:04.898Z,29.23
2019-06-26T06:44:36.109Z,29.28
2019-06-26T06:47:09.030Z,29.34
2019-06-26T06:49:40.926Z,29.42
2019-06-26T06:52:12.109Z,29.48
2019-06-26T06:54:43.944Z,29.58
2019-06-26T06:57:15.789Z,29.64
2019-06-26T06:59:47.046Z,29.65
2019-06-26T07:02:18.245Z,29.73
2019-06-26T07:04:50.042Z,29.82
2019-06-26T07:07:21.929Z,29.92
2019-06-26T07:09:54.197Z,29.96
2019-06-26T07:12:26.153Z,30.05
2019-06-26T07:14:57.434Z,30.12
2019-06-26T07:17:29.257Z,30.22
2019-06-26T07:20:01.182Z,30.32
2019-06-26T07:22:33.326Z,30.41
2019-06-26T07:25:06.476Z,30.46
2019-06-26T07:27:39.380Z,30.52
2019-06-26T07:30:12.641Z,30.64
2019-06-26T07:32:44.433Z,30.71
2019-06-26T07:35:15.662Z,30.80
2019-06-26T07:37:47.485Z,30.86
2019-06-26T07:40:23.044Z,30.96
2019-06-26T07:43:56.491Z,31.01
2019-06-26T07:46:23.531Z,31.13
2019-06-26T07:48:57.750Z,31.15
2019-06-26T07:51:29.845Z,31.21
2019-06-26T07:54:01.736Z,31.32
2019-06-26T07:56:34.886Z,31.44
2019-06-26T07:59:06.684Z,31.45
2019-06-26T08:01:43.993Z,31.48
2019-06-26T08:04:21.368Z,31.58
2019-06-26T08:06:53.916Z,31.63
2019-06-26T08:10:06.022Z,31.74
2019-06-26T08:12:39.228Z,31.84
2019-06-26T08:15:10.769Z,31.91
2019-06-26T08:17:59.174Z,31.97
2019-06-26T08:20:55.374Z,32.03
2019-06-26T08:23:19.245Z,32.04
2019-06-26T08:25:54.264Z,32.06
2019-06-26T08:29:06.424Z,32.23
2019-06-26T08:37:21.305Z,32.36
2019-06-26T08:39:23.080Z,32.51
2019-06-26T08:42:24.572Z,32.69
2019-06-26T08:45:07.064Z,32.75
2019-06-26T08:49:24.866Z,32.82
2019-06-26T08:51:31.603Z,33.01
2019-06-26T08:54:05.069Z,32.98
2019-06-26T08:56:38.730Z,33.09
2019-06-26T08:59:15.364Z,33.12
2019-06-26T09:01:47.509Z,33.23
2019-06-26T09:04:19.478Z,33.33
2019-06-26T09:06:51.500Z,33.38
2019-06-26T09:09:23.421Z,33.39
2019-06-26T09:11:57.093Z,33.50
2019-06-26T09:14:29.353Z,33.41
2019-06-26T09:17:04.300Z,33.51
2019-06-26T09:19:47.856Z,33.43
2019-06-26T09:22:21.896Z,33.42
2019-06-26T09:24:58.587Z,33.52
2019-06-26T09:27:30.126Z,33.62
2019-06-26T09:30:07.865Z,33.67
2019-06-26T09:32:40.270Z,33.64
2019-06-26T09:35:21.473Z,33.71
2019-06-26T09:37:53.071Z,33.77
2019-06-26T09:40:25.220Z,33.85
2019-06-26T09:42:56.633Z,33.86
2019-06-26T09:45:33.056Z,34.03
2019-06-26T09:48:52.142Z,34.13
2019-06-26T09:51:55.686Z,34.23
2019-06-26T09:54:26.329Z,34.23
2019-06-26T09:56:58.487Z,34.33
2019-06-26T09:59:30.568Z,34.30
2019-06-26T10:02:02.482Z,34.34
2019-06-26T10:04:34.355Z,34.49
2019-06-26T10:07:06.516Z,34.51
2019-06-26T10:10:11.854Z,34.40
2019-06-26T10:12:46.652Z,34.45
2019-06-26T10:15:19.471Z,34.48
2019-06-26T10:17:51.360Z,34.64
2019-06-26T10:20:23.996Z,34.73
2019-06-26T10:22:56.195Z,34.76
2019-06-26T10:25:27.466Z,34.82
2019-06-26T10:28:01.336Z,34.82
2019-06-26T10:30:36.887Z,34.88
2019-06-26T10:33:09.456Z,35.03
2019-06-26T10:35:44.163Z,35.10
2019-06-26T10:38:18.587Z,35.30
2019-06-26T10:40:51.176Z,35.30
2019-06-26T10:43:41.676Z,35.37
2019-06-26T10:46:13.872Z,35.33
2019-06-26T10:48:46.164Z,35.29
2019-06-26T10:51:21.190Z,35.16
2019-06-26T10:53:53.226Z,35.36
2019-06-26T10:56:28.651Z,35.38
2019-06-26T10:59:03.108Z,35.41
2019-06-26T11:01:35.381Z,35.65
2019-06-26T11:04:07.573Z,35.67
2019-06-26T11:06:42.393Z,35.63
2019-06-26T11:09:13.767Z,35.57
2019-06-26T11:11:45.669Z,35.68
2019-06-26T11:14:17.596Z,35.64
2019-06-26T11:16:49.580Z,35.66
2019-06-26T11:19:21.569Z,35.62
2019-06-26T11:21:53.512Z,35.64
2019-06-26T11:24:28.520Z,35.85
2019-06-26T11:26:59.700Z,35.80
2019-06-26T11:29:31.614Z,35.85
2019-06-26T11:32:03.527Z,35.79
2019-06-26T11:34:35.738Z,35.70
2019-06-26T11:37:07.593Z,35.69
2019-06-26T11:39:39.512Z,35.74
2019-06-26T11:42:11.524Z,35.97
2019-06-26T11:44:43.462Z,35.98
2019-06-26T11:47:15.413Z,36.11
2019-06-26T11:49:59.281Z,36.16
2019-06-26T11:52:20.999Z,36.12
2019-06-26T11:55:02.460Z,36.05
2019-06-26T11:57:26.569Z,36.08
2019-06-26T11:59:58.541Z,36.22
2019-06-26T12:02:30.428Z,36.46
2019-06-26T12:05:02.391Z,36.44
2019-06-26T12:07:34.315Z,36.42
2019-06-26T12:10:05.971Z,36.64
2019-06-26T12:12:37.836Z,36.65
2019-06-26T12:15:10.487Z,36.82
2019-06-26T12:17:42.646Z,36.54
2019-06-26T12:20:19.430Z,36.71
2019-06-26T12:22:48.478Z,36.71
2019-06-26T12:25:20.554Z,36.77
2019-06-26T12:27:52.531Z,36.80
2019-06-26T12:30:24.541Z,36.88
2019-06-26T12:33:02.994Z,36.86
2019-06-26T12:35:30.108Z,37.10
2019-06-26T12:38:02.147Z,37.10
2019-06-26T12:40:33.938Z,37.10
2019-06-26T12:43:16.463Z,37.17
2019-06-26T12:45:55.521Z,37.24
2019-06-26T12:48:41.482Z,37.37
2019-06-26T12:51:51.965Z,37.25
2019-06-26T12:55:32.682Z,37.48
2019-06-26T12:58:12.697Z,37.33
2019-06-26T13:00:52.194Z,37.39
2019-06-26T13:03:40.551Z,37.37
2019-06-26T13:06:14.221Z,37.25
2019-06-26T13:08:48.771Z,37.28
2019-06-26T13:12:31.961Z,37.32
2019-06-26T13:15:32.449Z,37.49
2019-06-26T13:22:59.964Z,37.56
2019-06-26T13:26:44.541Z,37.35
2019-06-26T13:34:20.873Z,37.14
2019-06-26T13:38:22.649Z,37.12
2019-06-26T13:42:24.290Z,37.04
2019-06-26T13:46:07.473Z,36.95
2019-06-26T13:50:08.534Z,37.34
2019-06-26T13:54:10.559Z,37.28
2019-06-26T13:57:00.217Z,37.49
2019-06-26T13:59:31.445Z,37.45
2019-06-26T14:02:03.250Z,37.48
2019-06-26T14:04:34.618Z,37.49
2019-06-26T14:07:08.568Z,37.50
2019-06-26T14:09:39.447Z,37.62
2019-06-26T14:12:11.478Z,37.60
2019-06-26T14:14:56.695Z,37.68
2019-06-26T14:17:16.445Z,37.82
2019-06-26T14:19:48.273Z,37.98
2019-06-26T14:22:20.170Z,38.05
2019-06-26T14:24:54.227Z,38.12
2019-06-26T14:27:26.244Z,37.95
2019-06-26T14:29:58.131Z,37.85
2019-06-26T14:32:30.045Z,38.00
2019-06-26T14:35:01.945Z,37.90
2019-06-26T14:37:34.259Z,37.77
2019-06-26T14:40:06.801Z,37.74
2019-06-26T14:42:38.715Z,37.74
2019-06-26T14:45:11.245Z,37.79
2019-06-26T14:47:42.437Z,37.95
2019-06-26T14:50:14.812Z,37.85
2019-06-26T14:52:46.614Z,37.97
2019-06-26T14:55:18.734Z,38.02
2019-06-26T14:57:50.657Z,38.06
2019-06-26T15:00:22.730Z,37.98
2019-06-26T15:02:55.930Z,37.89
2019-06-26T15:05:27.839Z,38.04
2019-06-26T15:07:59.737Z,38.07
2019-06-26T15:10:33.082Z,37.96
2019-06-26T15:13:05.050Z,38.08
2019-06-26T15:15:36.960Z,37.95
2019-06-26T15:18:11.987Z,37.88
2019-06-26T15:20:44.219Z,37.86
2019-06-26T15:23:16.181Z,37.81
2019-06-26T15:25:48.360Z,37.85
2019-06-26T15:28:20.371Z,37.92
2019-06-26T15:30:52.293Z,37.88
2019-06-26T15:33:23.731Z,37.80
2019-06-26T15:35:55.709Z,37.66
2019-06-26T15:38:28.705Z,37.69
2019-06-26T15:41:00.658Z,37.79
2019-06-26T15:43:32.544Z,37.75
2019-06-26T15:46:04.509Z,37.86
2019-06-26T15:48:36.581Z,37.90
2019-06-26T15:51:08.941Z,37.92
2019-06-26T15:53:40.917Z,37.98
2019-06-26T15:56:12.853Z,37.90
2019-06-26T15:58:44.746Z,37.86
2019-06-26T16:01:17.085Z,37.83
2019-06-26T16:03:49.112Z,37.90
2019-06-26T16:06:21.204Z,37.96
2019-06-26T16:08:53.307Z,38.04
2019-06-26T16:11:26.445Z,38.05
2019-06-26T16:13:59.377Z,38.16
2019-06-26T16:16:33.742Z,38.18
2019-06-26T16:19:11.585Z,38.20
2019-06-26T16:21:43.511Z,38.19
2019-06-26T16:24:15.536Z,38.20
2019-06-26T16:26:47.838Z,38.23
2019-06-26T16:29:19.386Z,38.14
2019-06-26T16:31:51.635Z,38.18
2019-06-26T16:34:22.847Z,38.29
2019-06-26T16:36:54.809Z,38.34
2019-06-26T16:39:26.225Z,38.38
2019-06-26T16:41:58.042Z,38.39
2019-06-26T16:44:29.605Z,38.38
2019-06-26T16:47:01.662Z,38.41
2019-06-26T16:49:33.965Z,38.47
2019-06-26T16:52:06.116Z,38.53
2019-06-26T16:54:38.043Z,38.37
2019-06-26T16:57:10.266Z,38.53
2019-06-26T16:59:42.258Z,38.43
2019-06-26T17:02:14.640Z,38.46
2019-06-26T17:04:46.881Z,38.56
2019-06-26T17:07:19.731Z,38.55
2019-06-26T17:09:53.050Z,38.61
2019-06-26T17:12:24.962Z,38.78
2019-06-26T17:14:57.323Z,38.80
2019-06-26T17:17:31.585Z,38.84
2019-06-26T17:20:03.582Z,38.98
2019-06-26T17:22:35.481Z,38.58
2019-06-26T17:25:07.532Z,38.87
2019-06-26T17:27:39.424Z,38.86
2019-06-26T17:30:11.564Z,38.84
2019-06-26T17:32:44.427Z,38.61
2019-06-26T17:35:16.681Z,38.55
2019-06-26T17:37:48.631Z,38.61
2019-06-26T17:40:22.542Z,38.72
2019-06-26T17:43:08.210Z,38.76
2019-06-26T17:45:29.227Z,38.64
2019-06-26T17:48:01.220Z,38.46
2019-06-26T17:50:33.567Z,37.98
2019-06-26T17:53:20.575Z,37.56
2019-06-26T17:55:41.579Z,37.19
2019-06-26T17:58:13.600Z,37.20
2019-06-26T18:00:45.498Z,37.45
2019-06-26T18:03:19.252Z,37.53
2019-06-26T18:05:51.336Z,37.62
2019-06-26T18:08:23.345Z,37.19
2019-06-26T18:10:55.616Z,37.10
2019-06-26T18:13:27.554Z,36.72
2019-06-26T18:16:00.050Z,36.12
2019-06-26T18:18:31.361Z,35.94
2019-06-26T18:21:05.512Z,35.78
2019-06-26T18:23:38.744Z,35.56
2019-06-26T18:26:13.375Z,35.26
2019-06-26T18:28:43.977Z,35.09
2019-06-26T18:31:17.417Z,34.84
2019-06-26T18:33:49.303Z,34.85
2019-06-26T18:36:21.748Z,34.71
2019-06-26T18:38:53.729Z,34.76
2019-06-26T18:41:25.709Z,34.63
2019-06-26T18:43:57.663Z,34.40
2019-06-26T18:46:30.288Z,34.26
2019-06-26T18:49:03.054Z,34.07
2019-06-26T18:51:35.518Z,33.98
2019-06-26T18:54:07.078Z,33.87
2019-06-26T18:56:38.639Z,33.82
2019-06-26T18:59:09.932Z,33.60
2019-06-26T19:01:41.136Z,33.57
2019-06-26T19:04:12.501Z,33.61
2019-06-26T19:06:43.788Z,33.47
2019-06-26T19:09:15.010Z,33.31
2019-06-26T19:11:46.504Z,33.27
2019-06-26T19:14:18.528Z,33.01
2019-06-26T19:16:50.063Z,32.91
2019-06-26T19:19:24.281Z,32.88
2019-06-26T19:21:55.397Z,32.90
2019-06-26T19:24:26.754Z,32.77
2019-06-26T19:26:59.350Z,32.58
2019-06-26T19:29:30.645Z,32.53
2019-06-26T19:32:02.764Z,32.46
2019-06-26T19:34:34.836Z,32.38
2019-06-26T19:37:07.970Z,32.33
2019-06-26T19:39:41.278Z,32.19
2019-06-26T19:42:13.104Z,32.06
2019-06-26T19:44:45.392Z,31.89
2019-06-26T19:47:16.761Z,31.94
2019-06-26T19:49:48.415Z,31.81
2019-06-26T19:52:19.703Z,31.72
2019-06-26T19:54:51.292Z,31.72
2019-06-26T19:57:22.683Z,31.64
2019-06-26T19:59:54.249Z,31.42
2019-06-26T20:02:25.431Z,31.35
2019-06-26T20:04:57.331Z,31.27
2019-06-26T20:07:29.476Z,31.03
2019-06-26T20:10:03.337Z,31.01
2019-06-26T20:12:35.366Z,31.07
2019-06-26T20:15:08.807Z,30.97
2019-06-26T20:17:40.801Z,30.95
2019-06-26T20:20:12.868Z,30.92
2019-06-26T20:22:45.508Z,30.92
2019-06-26T20:25:23.099Z,30.72
2019-06-26T20:27:57.311Z,30.54
2019-06-26T20:30:31.841Z,30.43
2019-06-26T20:33:03.720Z,30.38
2019-06-26T20:35:38.777Z,30.26
2019-06-26T20:38:08.968Z,30.06
2019-06-26T20:40:41.036Z,29.98
2019-06-26T20:43:12.327Z,30.03
2019-06-26T20:45:43.523Z,29.94
2019-06-26T20:48:14.771Z,30.00
2019-06-26T20:50:46.015Z,30.09
2019-06-26T20:53:17.207Z,30.08
2019-06-26T20:55:49.139Z,30.12
2019-06-26T20:58:21.082Z,30.09
2019-06-26T21:00:52.272Z,29.98
2019-06-26T21:03:25.250Z,29.84
2019-06-26T21:05:56.447Z,29.68
2019-06-26T21:08:29.575Z,29.59
2019-06-26T21:11:00.492Z,29.44
2019-06-26T21:13:32.366Z,29.39
2019-06-26T21:16:04.214Z,29.34
2019-06-26T21:18:36.263Z,29.37
2019-06-26T21:21:09.034Z,29.15
2019-06-26T21:23:42.015Z,29.12
2019-06-26T21:26:18.144Z,28.97
2019-06-26T21:29:00.825Z,28.96
2019-06-26T21:31:36.838Z,28.86
2019-06-26T21:34:10.787Z,28.84
2019-06-26T21:36:44.351Z,28.72
2019-06-26T21:39:16.297Z,28.79
2019-06-26T21:41:48.274Z,28.66
2019-06-26T21:44:20.206Z,28.68
2019-06-26T21:46:52.078Z,28.50
2019-06-26T21:49:23.290Z,28.45
2019-06-26T21:51:54.382Z,28.35
2019-06-26T21:54:26.186Z,28.19
2019-06-26T21:57:15.029Z,28.15
2019-06-26T22:00:05.602Z,28.13
2019-06-26T22:03:00.238Z,28.02
2019-06-26T22:05:33.486Z,27.87
2019-06-26T22:08:14.070Z,27.86
2019-06-26T22:10:56.034Z,27.80
2019-06-26T22:13:31.032Z,27.69
2019-06-26T22:16:03.194Z,27.69
2019-06-26T22:18:34.677Z,27.57
2019-06-26T22:21:05.985Z,27.46
2019-06-26T22:23:37.814Z,27.40
2019-06-26T22:26:09.761Z,27.32
2019-06-26T22:28:41.738Z,27.35
2019-06-26T22:31:12.976Z,27.25
2019-06-26T22:33:44.130Z,27.18
2019-06-26T22:36:15.281Z,27.15
2019-06-26T22:38:47.161Z,27.02
2019-06-26T22:41:18.381Z,26.97
2019-06-26T22:43:50.233Z,26.82
2019-06-26T22:46:22.234Z,26.83
2019-06-26T22:48:54.238Z,26.79
2019-06-26T22:51:26.137Z,26.67
2019-06-26T22:53:58.124Z,26.69
2019-06-26T22:56:29.991Z,26.63
2019-06-26T22:59:01.902Z,26.55
2019-06-26T23:01:33.834Z,26.47
2019-06-26T23:04:05.094Z,26.51
2019-06-26T23:06:37.626Z,26.33
2019-06-26T23:09:09.081Z,26.16
2019-06-26T23:11:40.880Z,26.08
2019-06-26T23:14:12.848Z,25.91
2019-06-26T23:16:44.759Z,25.87
2019-06-26T23:19:16.646Z,25.87
2019-06-26T23:21:47.846Z,25.78
2019-06-26T23:24:18.974Z,25.68
2019-06-26T23:26:51.094Z,25.64
2019-06-26T23:29:22.925Z,25.60
2019-06-26T23:31:54.813Z,25.37
2019-06-26T23:34:26.667Z,25.45
2019-06-26T23:36:58.537Z,25.37
2019-06-26T23:39:29.846Z,25.18
2019-06-26T23:42:01.734Z,25.22
2019-06-26T23:44:34.654Z,25.20
2019-06-26T23:47:05.983Z,25.19
2019-06-26T23:49:40.590Z,25.09
2019-06-26T23:52:11.885Z,25.13
2019-06-26T23:54:43.776Z,25.04
2019-06-26T23:57:17.357Z,24.92
2019-06-26T23:59:48.539Z,24.80
